Terminal Aerodrome Forecast
Issued by NWS

Home | Current Version | Previous Version | Text Only | Print | Product List | Glossary On
Versions: 1 2 3 4 5 6 7 8 9 10 11 12 13 14 15 16 17 18 19 20 21 22 23 24 25 26 27 28
000
FTUS45 KGJT 110541
TAFTEX
TAF
KTEX 110541Z 1106/1206 VRB03KT P6SM VCSH OVC060
     FM110900 27010G20KT 5SM -SN OVC040
     FM111700 27011G24KT P6SM VCSH BKN030
     FM112100 24009KT P6SM BKN050
     FM120000 21010KT P6SM SCT080=

USA.gov is the U.S. government's official web portal to all federal, state and local government web resources and services.